Terminal Aerodrome Forecast
Issued by NWS

Home | Current Version | Previous Version | Text Only | Print | Product List | Glossary On
Versions: 1 2 3 4 5 6 7 8 9 10 11 12 13 14
000
FTUS45 KPSR 300500
TAFIPL
TAF
KIPL 300520Z 3006/0106 27006KT P6SM SKC
     FM301500 VRB05KT P6SM SKC
      TEMPO 3018/3022 35005KT
     FM010200 27005KT P6SM SKC=

USA.gov is the U.S. government's official web portal to all federal, state and local government web resources and services.